Time;durP1;ratioP1;P1;durP2;ratioP2;P2;SDS_P1;SDS_P2;PMS_P1;PMS_P2;Temp;Humidity;BMP_temperature;BMP_pressure;BME280_temperature;BME280_humidity;BME280_pressure;Samples;Min_cycle;Max_cycle;Signal;HPM_P1;HPM_P2
2023/06/28 00:01:37;;;;;;;;;;;24.30;49.60;;;;;;5066335;28;20262;-56
2023/06/28 00:04:04;;;;;;;;;;;24.30;49.60;;;;;;5102544;28;19912;-55
2023/06/28 00:06:31;;;;;;;;;;;24.40;49.60;;;;;;5057341;28;19920;-55
2023/06/28 00:08:57;;;;;;;;;;;24.30;49.60;;;;;;5065771;28;20002;-55
2023/06/28 00:11:22;;;;;;;;;;;24.30;49.80;;;;;;5072249;28;20003;-55
2023/06/28 00:13:48;;;;;;;;;;;24.30;49.80;;;;;;5066216;28;20043;-55
2023/06/28 00:16:14;;;;;;;;;;;24.30;49.80;;;;;;5068337;28;19919;-55
2023/06/28 00:18:40;;;;;;;;;;;24.30;49.90;;;;;;5063358;28;19939;-54
2023/06/28 00:21:05;;;;;;;;;;;24.20;50.50;;;;;;5052899;28;19928;-55
2023/06/28 00:23:31;;;;;;;;;;;24.20;49.90;;;;;;5052198;28;19908;-55
2023/06/28 00:25:57;;;;;;;;;;;24.20;49.90;;;;;;5061502;28;20395;-54
2023/06/28 00:28:22;;;;;;;;;;;24.20;49.90;;;;;;5104521;28;19999;-55
2023/06/28 00:30:48;;;;;;;;;;;24.20;49.90;;;;;;5098393;28;19913;-55
2023/06/28 00:33:19;;;;;;;;;;;24.20;49.90;;;;;;5071915;28;19913;-55
2023/06/28 00:35:45;;;;;;;;;;;24.20;49.80;;;;;;5068849;28;19926;-56
2023/06/28 00:38:11;;;;;;;;;;;24.30;50.50;;;;;;5064835;28;19912;-55
2023/06/28 00:40:36;;;;;;;;;;;24.20;49.70;;;;;;5063282;28;19924;-55
2023/06/28 00:43:02;;;;;;;;;;;24.20;49.80;;;;;;5055480;28;19920;-55
2023/06/28 00:45:27;;;;;;;;;;;24.20;49.80;;;;;;5055485;28;19913;-55
2023/06/28 00:47:52;;;;;;;;;;;24.20;49.70;;;;;;5056680;28;19917;-55
2023/06/28 00:50:18;;;;;;;;;;;24.30;49.80;;;;;;5052248;28;20354;-55
2023/06/28 00:52:43;;;;;;;;;;;24.30;49.80;;;;;;5062975;28;20008;-55
2023/06/28 00:55:10;;;;;;;;;;;24.20;49.70;;;;;;5064002;28;19912;-55
2023/06/28 00:57:36;;;;;;;;;;;24.30;49.80;;;;;;5070895;28;20407;-55
2023/06/28 01:00:01;;;;;;;;;;;24.20;49.90;;;;;;5067198;28;19954;-55
2023/06/28 01:02:29;;;;;;;;;;;24.20;49.90;;;;;;5073865;28;20025;-55
2023/06/28 01:04:57;;;;;;;;;;;24.20;49.90;;;;;;5066737;28;20361;-55
2023/06/28 01:07:24;;;;;;;;;;;24.20;49.90;;;;;;5062561;28;19923;-55
2023/06/28 01:09:50;;;;;;;;;;;24.20;50.00;;;;;;5098722;28;20305;-55
2023/06/28 01:12:15;;;;;;;;;;;24.10;50.00;;;;;;5062977;28;19913;-55
2023/06/28 01:14:40;;;;;;;;;;;24.10;50.10;;;;;;5090463;28;19923;-55
2023/06/28 01:17:06;;;;;;;;;;;24.10;50.20;;;;;;5063477;28;20446;-54
2023/06/28 01:19:32;;;;;;;;;;;24.10;50.20;;;;;;5070173;28;20357;-54
2023/06/28 01:22:01;;;;;;;;;;;24.10;50.30;;;;;;5060234;28;20399;-54
2023/06/28 01:24:26;;;;;;;;;;;24.10;50.30;;;;;;5065965;28;20462;-54
2023/06/28 01:26:52;;;;;;;;;;;24.10;50.30;;;;;;5107212;28;19920;-54
2023/06/28 01:29:24;;;;;;;;;;;24.10;50.30;;;;;;5089354;28;19959;-54
2023/06/28 01:31:50;;;;;;;;;;;24.10;50.20;;;;;;5060367;28;19926;-54
2023/06/28 01:34:16;;;;;;;;;;;24.10;50.30;;;;;;5100187;28;20383;-54
2023/06/28 01:36:42;;;;;;;;;;;24.10;50.40;;;;;;5059258;28;19912;-54
2023/06/28 01:39:07;;;;;;;;;;;24.10;50.40;;;;;;5059621;28;19916;-55
2023/06/28 01:41:32;;;;;;;;;;;24.10;50.50;;;;;;5054304;28;19920;-55
2023/06/28 01:43:58;;;;;;;;;;;24.10;50.50;;;;;;5073969;28;20360;-54
2023/06/28 01:46:23;;;;;;;;;;;24.10;50.50;;;;;;5058497;28;20400;-54
2023/06/28 01:48:49;;;;;;;;;;;24.00;50.50;;;;;;5058683;28;20365;-54
2023/06/28 01:51:16;;;;;;;;;;;24.10;50.70;;;;;;5066380;28;21470;-55
2023/06/28 01:53:42;;;;;;;;;;;24.10;50.60;;;;;;5066638;28;20019;-54
2023/06/28 01:56:07;;;;;;;;;;;24.10;50.80;;;;;;5065154;28;19967;-55
2023/06/28 01:58:33;;;;;;;;;;;24.00;50.90;;;;;;5063589;28;19924;-55
2023/06/28 02:00:58;;;;;;;;;;;24.00;50.90;;;;;;5054294;28;19928;-54
2023/06/28 02:03:24;;;;;;;;;;;24.00;51.00;;;;;;5070800;28;19928;-53
2023/06/28 02:05:49;;;;;;;;;;;24.00;51.10;;;;;;5071374;28;19955;-55
2023/06/28 02:08:15;;;;;;;;;;;24.10;51.10;;;;;;5066014;28;19933;-54
2023/06/28 02:10:43;;;;;;;;;;;24.00;51.10;;;;;;5068066;28;19912;-54
2023/06/28 02:13:08;;;;;;;;;;;24.00;51.20;;;;;;5071456;28;19912;-54
2023/06/28 02:15:35;;;;;;;;;;;24.00;51.20;;;;;;5065395;28;20497;-55
2023/06/28 02:18:01;;;;;;;;;;;24.10;51.30;;;;;;5055530;28;19956;-55
2023/06/28 02:20:26;;;;;;;;;;;24.00;51.20;;;;;;5054448;28;19967;-54
2023/06/28 02:22:52;;;;;;;;;;;24.00;51.30;;;;;;5098716;28;20325;-55
2023/06/28 02:25:17;;;;;;;;;;;24.00;51.50;;;;;;5061823;28;20377;-54
2023/06/28 02:27:43;;;;;;;;;;;24.00;51.50;;;;;;5060493;28;20320;-54
2023/06/28 02:30:08;;;;;;;;;;;24.00;51.50;;;;;;5072982;28;20340;-54
2023/06/28 02:32:34;;;;;;;;;;;24.00;51.60;;;;;;5076575;28;19920;-54
2023/06/28 02:34:59;;;;;;;;;;;24.00;51.60;;;;;;5061810;28;20007;-55
2023/06/28 02:37:25;;;;;;;;;;;24.00;51.60;;;;;;5068454;28;19923;-54
2023/06/28 02:39:50;;;;;;;;;;;24.00;51.70;;;;;;5055226;28;19971;-54
2023/06/28 02:42:16;;;;;;;;;;;23.90;51.70;;;;;;5062632;28;19923;-55
2023/06/28 02:44:41;;;;;;;;;;;23.90;51.80;;;;;;5055727;28;19931;-54
2023/06/28 02:47:07;;;;;;;;;;;23.90;51.80;;;;;;5071775;28;19921;-55
2023/06/28 02:49:32;;;;;;;;;;;23.90;51.80;;;;;;5065777;28;19917;-55
2023/06/28 02:51:58;;;;;;;;;;;23.90;51.90;;;;;;5069213;28;20007;-54
2023/06/28 02:54:23;;;;;;;;;;;23.90;51.90;;;;;;5058970;28;19917;-54
2023/06/28 02:56:49;;;;;;;;;;;23.90;52.00;;;;;;5065776;28;20364;-54
2023/06/28 02:59:14;;;;;;;;;;;23.90;52.10;;;;;;5060352;28;20378;-55
2023/06/28 03:01:40;;;;;;;;;;;23.80;52.00;;;;;;5062114;28;20397;-54
2023/06/28 03:04:07;;;;;;;;;;;23.90;52.10;;;;;;5057578;28;19978;-54
2023/06/28 03:06:32;;;;;;;;;;;23.90;52.10;;;;;;5066376;28;19982;-55
2023/06/28 03:08:58;;;;;;;;;;;23.90;52.10;;;;;;5057061;28;20388;-55
2023/06/28 03:11:23;;;;;;;;;;;23.80;52.10;;;;;;5065381;28;19916;-54
2023/06/28 03:13:49;;;;;;;;;;;23.90;52.20;;;;;;5059975;28;19917;-55
2023/06/28 03:16:15;;;;;;;;;;;23.80;52.20;;;;;;5065529;28;20316;-54
2023/06/28 03:18:41;;;;;;;;;;;23.80;52.20;;;;;;5066360;28;19959;-55
2023/06/28 03:21:06;;;;;;;;;;;23.80;52.30;;;;;;5102163;28;19978;-55
2023/06/28 03:23:32;;;;;;;;;;;23.80;52.20;;;;;;5066668;28;19943;-55
2023/06/28 03:25:57;;;;;;;;;;;23.80;52.30;;;;;;5070984;28;20372;-55
2023/06/28 03:28:23;;;;;;;;;;;23.80;52.40;;;;;;5060705;28;20277;-55
2023/06/28 03:30:48;;;;;;;;;;;23.70;52.40;;;;;;5062300;28;20343;-55
2023/06/28 03:33:14;;;;;;;;;;;23.80;52.50;;;;;;5101213;28;19927;-55
2023/06/28 03:35:39;;;;;;;;;;;23.70;52.50;;;;;;5064839;28;20387;-55
2023/06/28 03:38:05;;;;;;;;;;;23.70;52.50;;;;;;5066808;28;19913;-55
2023/06/28 03:40:30;;;;;;;;;;;23.70;52.60;;;;;;5069015;28;19942;-54
2023/06/28 03:42:56;;;;;;;;;;;23.80;52.60;;;;;;5059502;28;19956;-55
2023/06/28 03:45:21;;;;;;;;;;;23.80;52.60;;;;;;5060403;28;19994;-55
2023/06/28 03:47:47;;;;;;;;;;;23.80;52.60;;;;;;5061941;28;19917;-54
2023/06/28 03:50:13;;;;;;;;;;;23.70;52.70;;;;;;5059179;28;19913;-55
2023/06/28 03:52:38;;;;;;;;;;;23.70;52.80;;;;;;5062714;28;19921;-54
2023/06/28 03:55:04;;;;;;;;;;;23.70;52.80;;;;;;5068798;28;20367;-54
2023/06/28 03:57:29;;;;;;;;;;;23.70;52.80;;;;;;5086190;28;20011;-55
2023/06/28 03:59:55;;;;;;;;;;;23.70;52.80;;;;;;5067131;28;20405;-54
2023/06/28 04:02:21;;;;;;;;;;;23.70;52.80;;;;;;5070688;28;20270;-54
2023/06/28 04:04:46;;;;;;;;;;;23.70;52.80;;;;;;5060554;28;20316;-55
2023/06/28 04:07:12;;;;;;;;;;;23.70;52.80;;;;;;5059970;28;19916;-55
2023/06/28 04:09:38;;;;;;;;;;;23.70;52.80;;;;;;5064239;28;19948;-55
2023/06/28 04:12:04;;;;;;;;;;;23.80;52.90;;;;;;5052782;28;19943;-54
2023/06/28 04:14:29;;;;;;;;;;;23.80;52.90;;;;;;5063644;28;19916;-55
2023/06/28 04:16:55;;;;;;;;;;;23.80;52.90;;;;;;5063526;28;19940;-55
2023/06/28 04:19:20;;;;;;;;;;;23.80;52.90;;;;;;5052707;28;20331;-54
2023/06/28 04:21:46;;;;;;;;;;;23.80;53.00;;;;;;5055268;28;20461;-55
2023/06/28 04:24:11;;;;;;;;;;;23.80;52.90;;;;;;5059797;28;19913;-55
2023/06/28 04:26:36;;;;;;;;;;;23.80;53.00;;;;;;5065100;28;19912;-54
2023/06/28 04:29:02;;;;;;;;;;;23.70;53.20;;;;;;5060257;28;19955;-55
2023/06/28 04:31:27;;;;;;;;;;;23.70;53.10;;;;;;5065820;28;19913;-54
2023/06/28 04:33:57;;;;;;;;;;;23.70;53.10;;;;;;5060277;28;20349;-55
2023/06/28 04:36:25;;;;;;;;;;;23.70;53.10;;;;;;5069652;28;19983;-55
2023/06/28 04:38:52;;;;;;;;;;;23.70;53.00;;;;;;5069546;28;19913;-55
2023/06/28 04:41:26;;;;;;;;;;;23.70;53.00;;;;;;5069643;28;19979;-55
2023/06/28 04:43:54;;;;;;;;;;;23.70;53.10;;;;;;5060809;28;19967;-55
2023/06/28 04:46:20;;;;;;;;;;;23.70;53.20;;;;;;5061017;28;20042;-54
2023/06/28 04:48:46;;;;;;;;;;;23.70;53.30;;;;;;5073147;28;19958;-54
2023/06/28 04:51:11;;;;;;;;;;;23.70;53.80;;;;;;5066577;28;19916;-55
2023/06/28 04:53:36;;;;;;;;;;;23.70;53.20;;;;;;5091261;28;19913;-55
2023/06/28 04:56:02;;;;;;;;;;;23.70;53.20;;;;;;5060835;28;19920;-54
2023/06/28 04:58:27;;;;;;;;;;;23.70;53.10;;;;;;5066314;28;19912;-54
2023/06/28 05:00:56;;;;;;;;;;;23.80;53.20;;;;;;5087939;28;19913;-55
2023/06/28 05:03:26;;;;;;;;;;;23.80;53.20;;;;;;5058142;28;19920;-54
2023/06/28 05:05:53;;;;;;;;;;;23.70;53.30;;;;;;5061758;28;19917;-54
2023/06/28 05:08:18;;;;;;;;;;;23.70;53.20;;;;;;5060583;28;19917;-54
2023/06/28 05:10:44;;;;;;;;;;;23.70;53.40;;;;;;5067536;28;20404;-55
2023/06/28 05:13:09;;;;;;;;;;;23.70;53.30;;;;;;5087841;28;19981;-54
2023/06/28 05:15:35;;;;;;;;;;;23.70;53.40;;;;;;5069148;28;19916;-54
2023/06/28 05:18:00;;;;;;;;;;;23.70;53.40;;;;;;5090740;28;19913;-54
2023/06/28 05:20:26;;;;;;;;;;;23.70;53.40;;;;;;5060256;28;19927;-54
2023/06/28 05:23:04;;;;;;;;;;;23.70;53.60;;;;;;5071295;28;19917;-54
2023/06/28 05:25:29;;;;;;;;;;;23.70;53.60;;;;;;5096991;28;19958;-54
2023/06/28 05:27:55;;;;;;;;;;;23.70;53.60;;;;;;5069031;28;19920;-54
2023/06/28 05:30:20;;;;;;;;;;;23.60;53.70;;;;;;5066601;28;19987;-54
2023/06/28 05:32:46;;;;;;;;;;;23.70;53.80;;;;;;5056258;28;19917;-54
2023/06/28 05:35:11;;;;;;;;;;;23.70;53.80;;;;;;5066094;28;19912;-54
2023/06/28 05:37:36;;;;;;;;;;;23.70;53.80;;;;;;5053048;28;19931;-53
2023/06/28 05:40:02;;;;;;;;;;;23.70;53.80;;;;;;5066030;28;19920;-55
2023/06/28 05:42:28;;;;;;;;;;;23.80;53.80;;;;;;5070352;28;19913;-54
2023/06/28 05:44:54;;;;;;;;;;;23.80;53.80;;;;;;5066503;28;19964;-53
2023/06/28 05:47:19;;;;;;;;;;;23.70;53.80;;;;;;5068524;28;19986;-54
2023/06/28 05:49:45;;;;;;;;;;;23.80;53.80;;;;;;5067238;28;20376;-54
2023/06/28 05:52:10;;;;;;;;;;;23.80;53.80;;;;;;5058921;28;20373;-55
2023/06/28 05:54:36;;;;;;;;;;;23.80;53.90;;;;;;5070986;28;19959;-55
2023/06/28 05:57:01;;;;;;;;;;;23.70;54.00;;;;;;5072532;28;20393;-54
2023/06/28 05:59:26;;;;;;;;;;;23.70;54.10;;;;;;5074134;28;19909;-55
2023/06/28 06:01:52;;;;;;;;;;;23.70;54.00;;;;;;5069733;28;19913;-54
2023/06/28 06:04:17;;;;;;;;;;;23.70;54.20;;;;;;5064109;28;19935;-55
2023/06/28 06:06:43;;;;;;;;;;;23.70;54.20;;;;;;5070282;28;20360;-55
2023/06/28 06:09:08;;;;;;;;;;;23.70;54.20;;;;;;5067061;28;19962;-56
2023/06/28 06:11:34;;;;;;;;;;;23.70;54.50;;;;;;5054439;28;19916;-53
2023/06/28 06:13:59;;;;;;;;;;;23.70;54.40;;;;;;5070802;28;19923;-54
2023/06/28 06:16:25;;;;;;;;;;;23.70;54.40;;;;;;5070633;28;19919;-53
2023/06/28 06:18:50;;;;;;;;;;;23.70;54.50;;;;;;5068463;28;20404;-56
2023/06/28 06:21:16;;;;;;;;;;;23.70;54.50;;;;;;5060461;28;20255;-54
2023/06/28 06:23:41;;;;;;;;;;;23.70;54.50;;;;;;5084353;28;19960;-54
2023/06/28 06:26:06;;;;;;;;;;;23.70;54.60;;;;;;5071398;28;20369;-53
2023/06/28 06:28:32;;;;;;;;;;;23.80;54.60;;;;;;5062820;28;20284;-53
2023/06/28 06:30:57;;;;;;;;;;;23.80;54.50;;;;;;5064539;28;19932;-54
2023/06/28 06:33:23;;;;;;;;;;;23.80;54.40;;;;;;5062440;28;19982;-54
2023/06/28 06:35:48;;;;;;;;;;;23.80;54.40;;;;;;5064940;28;19958;-54
2023/06/28 06:38:14;;;;;;;;;;;23.80;54.30;;;;;;5100077;28;19924;-55
2023/06/28 06:40:39;;;;;;;;;;;23.80;54.00;;;;;;5063715;28;19920;-55
2023/06/28 06:43:05;;;;;;;;;;;23.80;54.00;;;;;;5065754;28;19917;-54
2023/06/28 06:45:30;;;;;;;;;;;23.80;54.00;;;;;;5061878;28;20366;-54
2023/06/28 06:47:56;;;;;;;;;;;23.80;53.80;;;;;;5063472;28;20061;-55
2023/06/28 06:50:21;;;;;;;;;;;23.80;53.90;;;;;;5060632;28;19919;-55
2023/06/28 06:52:46;;;;;;;;;;;23.80;53.80;;;;;;5062826;28;19919;-55
2023/06/28 06:55:12;;;;;;;;;;;23.80;53.80;;;;;;5054668;28;19909;-54
2023/06/28 06:57:37;;;;;;;;;;;23.80;53.60;;;;;;5058805;28;19936;-55
2023/06/28 07:00:06;;;;;;;;;;;23.80;53.60;;;;;;5064536;28;20079;-54
2023/06/28 07:02:32;;;;;;;;;;;23.80;53.60;;;;;;5062587;28;19976;-54
2023/06/28 07:04:58;;;;;;;;;;;23.80;53.50;;;;;;5063175;28;19995;-54
2023/06/28 07:07:23;;;;;;;;;;;23.80;53.50;;;;;;5056896;28;19956;-53
2023/06/28 07:09:49;;;;;;;;;;;23.80;53.50;;;;;;5060752;28;19932;-55
2023/06/28 07:12:14;;;;;;;;;;;23.90;53.50;;;;;;5060119;28;20445;-55
2023/06/28 07:14:39;;;;;;;;;;;23.80;53.40;;;;;;5064835;28;19916;-55
2023/06/28 07:17:05;;;;;;;;;;;23.90;53.50;;;;;;5064101;28;19999;-54
2023/06/28 07:19:30;;;;;;;;;;;23.90;53.50;;;;;;5054778;28;19920;-55
2023/06/28 07:21:56;;;;;;;;;;;23.80;53.20;;;;;;5054587;28;19971;-54
2023/06/28 07:24:21;;;;;;;;;;;23.90;53.40;;;;;;5061225;28;19915;-54
2023/06/28 07:26:47;;;;;;;;;;;23.90;53.20;;;;;;5060126;28;19912;-54
2023/06/28 07:29:12;;;;;;;;;;;23.90;53.20;;;;;;5063042;28;20020;-54
2023/06/28 07:31:38;;;;;;;;;;;23.90;53.10;;;;;;5063749;28;20419;-54
2023/06/28 07:34:06;;;;;;;;;;;23.90;53.10;;;;;;5054518;28;19919;-54
2023/06/28 07:36:31;;;;;;;;;;;23.90;53.20;;;;;;5059270;28;19978;-54
2023/06/28 07:38:57;;;;;;;;;;;23.90;53.10;;;;;;5091080;28;21646;-54
2023/06/28 07:41:23;;;;;;;;;;;23.90;53.20;;;;;;5055863;28;19922;-54
2023/06/28 07:43:49;;;;;;;;;;;23.90;53.20;;;;;;5059398;28;19963;-55
2023/06/28 07:46:15;;;;;;;;;;;23.90;53.10;;;;;;5055420;28;20465;-56
2023/06/28 07:48:40;;;;;;;;;;;23.90;53.00;;;;;;5059117;28;20008;-54
2023/06/28 07:51:05;;;;;;;;;;;24.00;52.90;;;;;;5069729;28;19919;-55
2023/06/28 07:53:31;;;;;;;;;;;24.00;52.80;;;;;;5064439;28;19916;-54
2023/06/28 07:55:57;;;;;;;;;;;24.00;52.80;;;;;;5067049;28;19912;-55
2023/06/28 07:58:22;;;;;;;;;;;23.90;52.70;;;;;;5063110;28;19912;-54
2023/06/28 08:00:48;;;;;;;;;;;23.90;52.60;;;;;;5058534;28;19920;-55
2023/06/28 08:03:13;;;;;;;;;;;24.00;52.70;;;;;;5058710;28;19919;-55
2023/06/28 08:05:39;;;;;;;;;;;24.00;52.70;;;;;;5061697;28;19927;-55
2023/06/28 08:08:04;;;;;;;;;;;24.00;53.20;;;;;;5061620;28;19928;-55
2023/06/28 08:10:29;;;;;;;;;;;24.00;52.60;;;;;;5066140;28;19913;-55
2023/06/28 08:12:55;;;;;;;;;;;24.00;52.70;;;;;;5058233;28;19986;-55
2023/06/28 08:15:20;;;;;;;;;;;24.00;52.70;;;;;;5090319;28;19973;-55
2023/06/28 08:17:46;;;;;;;;;;;24.00;52.60;;;;;;5062831;28;19912;-54
2023/06/28 08:20:12;;;;;;;;;;;24.00;52.80;;;;;;5061397;28;19920;-54
2023/06/28 08:22:37;;;;;;;;;;;24.00;52.70;;;;;;5065059;28;20363;-54
2023/06/28 08:25:03;;;;;;;;;;;24.10;52.90;;;;;;5089172;28;19919;-55
2023/06/28 08:27:29;;;;;;;;;;;24.10;52.60;;;;;;5058143;28;19924;-54
2023/06/28 08:29:54;;;;;;;;;;;24.10;52.80;;;;;;5061584;28;19916;-54
2023/06/28 08:32:20;;;;;;;;;;;24.10;52.60;;;;;;5064779;28;19912;-55
2023/06/28 08:34:46;;;;;;;;;;;24.10;52.60;;;;;;5062993;28;19916;-54
2023/06/28 08:37:12;;;;;;;;;;;24.20;52.70;;;;;;5062759;28;19924;-54
2023/06/28 08:39:38;;;;;;;;;;;24.20;52.60;;;;;;5064470;28;19912;-55
2023/06/28 08:42:03;;;;;;;;;;;24.10;52.50;;;;;;5061592;28;19920;-53
2023/06/28 08:44:30;;;;;;;;;;;24.10;52.50;;;;;;5060920;28;19923;-55
2023/06/28 08:46:55;;;;;;;;;;;24.20;52.60;;;;;;5094288;28;19935;-56
2023/06/28 08:49:21;;;;;;;;;;;24.20;52.50;;;;;;5062698;28;20345;-55
2023/06/28 08:51:46;;;;;;;;;;;24.20;52.60;;;;;;5096777;28;19920;-56
2023/06/28 08:54:12;;;;;;;;;;;24.10;52.50;;;;;;5060015;28;19917;-54
2023/06/28 08:56:38;;;;;;;;;;;24.20;52.60;;;;;;5060798;28;20427;-56
2023/06/28 08:59:03;;;;;;;;;;;24.10;52.40;;;;;;5097668;28;19920;-55
2023/06/28 09:01:29;;;;;;;;;;;24.20;52.40;;;;;;5054918;28;19916;-56
2023/06/28 09:03:54;;;;;;;;;;;24.20;52.30;;;;;;5062218;28;19916;-55
2023/06/28 09:06:20;;;;;;;;;;;24.30;52.30;;;;;;5063620;28;19997;-55
2023/06/28 09:08:45;;;;;;;;;;;24.30;52.50;;;;;;5056196;28;19921;-54
2023/06/28 09:11:11;;;;;;;;;;;24.30;52.30;;;;;;5093442;28;19919;-55
2023/06/28 09:13:36;;;;;;;;;;;24.30;52.40;;;;;;5054705;28;19913;-54
2023/06/28 09:16:05;;;;;;;;;;;24.30;52.40;;;;;;5091251;28;19919;-55
2023/06/28 09:18:31;;;;;;;;;;;24.30;52.30;;;;;;5092689;28;19935;-54
2023/06/28 09:20:56;;;;;;;;;;;24.30;52.20;;;;;;5057183;28;19981;-55
2023/06/28 09:23:23;;;;;;;;;;;24.30;52.20;;;;;;5065817;28;19919;-54
2023/06/28 09:25:49;;;;;;;;;;;24.40;52.20;;;;;;5107463;27;20349;-54
2023/06/28 09:28:15;;;;;;;;;;;24.30;52.20;;;;;;5064197;28;20434;-54
2023/06/28 09:30:40;;;;;;;;;;;24.40;52.20;;;;;;5060626;28;19952;-54
2023/06/28 09:33:05;;;;;;;;;;;24.30;52.30;;;;;;5057622;28;19916;-55
2023/06/28 09:35:31;;;;;;;;;;;24.30;52.40;;;;;;5068157;28;19919;-55
2023/06/28 09:38:04;;;;;;;;;;;24.30;52.70;;;;;;5059150;28;19927;-54
2023/06/28 09:40:32;;;;;;;;;;;24.30;52.80;;;;;;5071980;28;20376;-55
2023/06/28 09:42:57;;;;;;;;;;;24.30;52.70;;;;;;5061038;28;19913;-55
2023/06/28 09:45:27;;;;;;;;;;;24.40;52.60;;;;;;5067855;28;19913;-55
2023/06/28 09:47:56;;;;;;;;;;;24.40;52.60;;;;;;5100950;28;19916;-55
2023/06/28 09:50:25;;;;;;;;;;;24.30;52.50;;;;;;5074252;28;19916;-55
2023/06/28 09:52:51;;;;;;;;;;;24.40;52.50;;;;;;5061944;28;19948;-55
2023/06/28 09:55:16;;;;;;;;;;;24.30;52.50;;;;;;5102901;28;19979;-55
2023/06/28 09:57:42;;;;;;;;;;;24.30;52.70;;;;;;5065322;28;20027;-54
2023/06/28 10:00:08;;;;;;;;;;;24.30;52.60;;;;;;5094099;28;20295;-55
2023/06/28 10:02:34;;;;;;;;;;;24.30;52.50;;;;;;5058894;28;19916;-55
2023/06/28 10:04:59;;;;;;;;;;;24.30;52.50;;;;;;5058268;28;19912;-55
2023/06/28 10:07:24;;;;;;;;;;;24.30;52.30;;;;;;5064923;28;19912;-54
2023/06/28 10:09:50;;;;;;;;;;;24.30;52.40;;;;;;5101434;28;20007;-55
2023/06/28 10:12:20;;;;;;;;;;;24.40;52.40;;;;;;5069634;28;20368;-55
2023/06/28 10:15:05;;;;;;;;;;;24.40;52.30;;;;;;5057546;28;19938;-54
2023/06/28 10:17:32;;;;;;;;;;;24.50;52.10;;;;;;5098630;28;19912;-55
2023/06/28 10:19:57;;;;;;;;;;;24.50;52.10;;;;;;5105061;28;19917;-54
2023/06/28 10:22:23;;;;;;;;;;;24.50;52.10;;;;;;5063367;28;19921;-55
2023/06/28 10:24:48;;;;;;;;;;;24.50;52.20;;;;;;5061291;28;19961;-55
2023/06/28 10:27:14;;;;;;;;;;;24.50;52.20;;;;;;5056153;28;20017;-55
2023/06/28 10:29:39;;;;;;;;;;;24.50;52.20;;;;;;5090763;28;19917;-55
2023/06/28 10:32:05;;;;;;;;;;;24.50;52.10;;;;;;5060458;28;20386;-54
2023/06/28 10:34:31;;;;;;;;;;;24.40;52.20;;;;;;5068926;28;20364;-55
2023/06/28 10:36:56;;;;;;;;;;;24.40;52.20;;;;;;5068731;28;19969;-54
2023/06/28 10:39:22;;;;;;;;;;;24.40;52.30;;;;;;5062936;28;19912;-54
2023/06/28 10:41:54;;;;;;;;;;;24.30;52.40;;;;;;5061783;28;20392;-54
2023/06/28 10:44:19;;;;;;;;;;;24.30;52.40;;;;;;5065331;28;19916;-55
2023/06/28 10:46:45;;;;;;;;;;;24.30;52.30;;;;;;5055507;28;19952;-54
2023/06/28 10:49:11;;;;;;;;;;;24.40;52.20;;;;;;5062833;28;19989;-54
2023/06/28 10:51:36;;;;;;;;;;;24.40;52.20;;;;;;5067788;28;19919;-54
2023/06/28 10:54:09;;;;;;;;;;;24.40;52.20;;;;;;5060472;28;19912;-54
2023/06/28 10:56:55;;;;;;;;;;;24.40;52.20;;;;;;5059341;28;20002;-54
2023/06/28 10:59:21;;;;;;;;;;;24.50;52.10;;;;;;5058956;28;20053;-54
2023/06/28 11:01:49;;;;;;;;;;;24.50;52.30;;;;;;5061799;28;20448;-55
2023/06/28 11:04:14;;;;;;;;;;;24.60;52.20;;;;;;5066707;28;20057;-56
2023/06/28 11:06:40;;;;;;;;;;;24.60;52.00;;;;;;5065698;28;20004;-55
2023/06/28 11:09:13;;;;;;;;;;;24.60;51.80;;;;;;5069034;28;19975;-54
2023/06/28 11:11:41;;;;;;;;;;;24.60;51.40;;;;;;5063259;28;19931;-53
2023/06/28 11:14:23;;;;;;;;;;;24.70;51.10;;;;;;5064412;28;19912;-54
2023/06/28 11:16:48;;;;;;;;;;;24.60;50.90;;;;;;5064513;28;20003;-55
2023/06/28 11:19:14;;;;;;;;;;;24.70;50.60;;;;;;5058601;28;20012;-55
2023/06/28 11:21:40;;;;;;;;;;;24.70;50.50;;;;;;5057737;28;19923;-55
2023/06/28 11:24:05;;;;;;;;;;;24.60;50.00;;;;;;5066302;28;20349;-56
2023/06/28 11:26:35;;;;;;;;;;;24.60;50.20;;;;;;5066484;28;19912;-55
2023/06/28 11:29:00;;;;;;;;;;;24.50;50.20;;;;;;5063591;28;19916;-55
2023/06/28 11:31:39;;;;;;;;;;;24.50;50.30;;;;;;5061129;28;19965;-55
2023/06/28 11:34:05;;;;;;;;;;;24.50;50.40;;;;;;5062229;28;19912;-56
2023/06/28 11:36:30;;;;;;;;;;;24.60;50.20;;;;;;5067770;28;20336;-55
2023/06/28 11:38:56;;;;;;;;;;;24.70;50.40;;;;;;5056865;28;19916;-55
2023/06/28 11:41:21;;;;;;;;;;;24.80;50.10;;;;;;5068655;28;19913;-54
2023/06/28 11:43:47;;;;;;;;;;;24.80;49.90;;;;;;5092229;28;19913;-56
2023/06/28 11:46:19;;;;;;;;;;;24.80;49.90;;;;;;5090458;28;19932;-55
2023/06/28 11:48:48;;;;;;;;;;;24.70;49.90;;;;;;5064922;28;19924;-55
2023/06/28 11:51:14;;;;;;;;;;;24.70;49.60;;;;;;5069652;28;19916;-54
2023/06/28 11:53:39;;;;;;;;;;;24.70;49.70;;;;;;5078255;28;19920;-56
2023/06/28 11:56:05;;;;;;;;;;;24.70;49.90;;;;;;5059828;28;19920;-54
2023/06/28 11:58:31;;;;;;;;;;;24.70;50.10;;;;;;5096950;28;19971;-55
2023/06/28 12:00:57;;;;;;;;;;;24.70;49.70;;;;;;5059968;28;19959;-55
2023/06/28 12:03:32;;;;;;;;;;;24.70;49.10;;;;;;5058188;28;19959;-55
2023/06/28 12:05:58;;;;;;;;;;;24.70;49.40;;;;;;5090223;28;20035;-53
2023/06/28 12:08:24;;;;;;;;;;;24.70;49.30;;;;;;5095156;28;20439;-54
2023/06/28 12:10:50;;;;;;;;;;;24.70;49.10;;;;;;5099398;28;20519;-54
2023/06/28 12:13:22;;;;;;;;;;;24.70;49.30;;;;;;5064543;28;19917;-54
2023/06/28 12:15:48;;;;;;;;;;;24.70;49.10;;;;;;5068772;28;19920;-54
2023/06/28 12:18:13;;;;;;;;;;;24.80;49.00;;;;;;5054286;28;19917;-55
2023/06/28 12:20:39;;;;;;;;;;;24.80;48.80;;;;;;5085372;28;20058;-53
2023/06/28 12:23:10;;;;;;;;;;;24.80;48.50;;;;;;5060366;28;20297;-54
2023/06/28 12:25:35;;;;;;;;;;;24.90;48.30;;;;;;5057886;28;20241;-53
2023/06/28 12:28:02;;;;;;;;;;;24.90;47.80;;;;;;5100924;28;19928;-54
2023/06/28 12:30:28;;;;;;;;;;;24.90;47.80;;;;;;5065280;28;19916;-53
2023/06/28 12:32:55;;;;;;;;;;;24.90;48.40;;;;;;5052035;28;19920;-53
2023/06/28 12:35:22;;;;;;;;;;;24.90;48.30;;;;;;5066428;28;19921;-54
2023/06/28 12:37:57;;;;;;;;;;;24.90;47.90;;;;;;5066744;28;19919;-54
2023/06/28 12:40:25;;;;;;;;;;;24.80;48.10;;;;;;5064158;28;20330;-54
2023/06/28 12:43:09;;;;;;;;;;;24.90;48.50;;;;;;5065491;28;19912;-54
2023/06/28 12:45:45;;;;;;;;;;;24.90;48.50;;;;;;5066134;28;19932;-54
2023/06/28 12:48:11;;;;;;;;;;;24.90;48.60;;;;;;5068418;28;19992;-54
2023/06/28 12:50:36;;;;;;;;;;;24.90;48.50;;;;;;5069746;28;19923;-54
2023/06/28 12:53:01;;;;;;;;;;;25.00;48.20;;;;;;5069224;28;19908;-55
2023/06/28 12:55:27;;;;;;;;;;;25.10;47.80;;;;;;5088076;28;19923;-55
2023/06/28 12:57:52;;;;;;;;;;;25.00;48.10;;;;;;5057070;28;19909;-55
2023/06/28 13:00:18;;;;;;;;;;;25.00;48.30;;;;;;5055817;28;20328;-55
2023/06/28 13:02:44;;;;;;;;;;;25.10;48.00;;;;;;5059987;28;19919;-54
2023/06/28 13:05:09;;;;;;;;;;;25.10;47.80;;;;;;5058781;28;19982;-54
2023/06/28 13:07:35;;;;;;;;;;;25.10;47.60;;;;;;5090886;28;20282;-53
2023/06/28 13:10:01;;;;;;;;;;;25.00;47.70;;;;;;5063515;28;19912;-53
2023/06/28 13:12:26;;;;;;;;;;;25.00;47.60;;;;;;5067311;28;19912;-54
2023/06/28 13:14:52;;;;;;;;;;;25.00;47.50;;;;;;5089377;27;19926;-54
2023/06/28 13:17:17;;;;;;;;;;;25.00;47.50;;;;;;5056352;28;19920;-54
2023/06/28 13:19:43;;;;;;;;;;;25.00;47.80;;;;;;5092464;28;20299;-54
2023/06/28 13:22:09;;;;;;;;;;;25.10;46.50;;;;;;5055395;28;19928;-54
2023/06/28 13:24:34;;;;;;;;;;;25.10;46.60;;;;;;5055616;28;19946;-54
2023/06/28 13:27:00;;;;;;;;;;;25.10;47.60;;;;;;5066375;28;19913;-55
2023/06/28 13:29:25;;;;;;;;;;;25.10;47.10;;;;;;5059371;28;20285;-55
2023/06/28 13:31:50;;;;;;;;;;;25.10;47.00;;;;;;5062523;28;20012;-54
2023/06/28 13:34:16;;;;;;;;;;;25.10;46.80;;;;;;5061296;28;20292;-54
2023/06/28 13:36:42;;;;;;;;;;;25.10;47.00;;;;;;5068352;28;19916;-54
2023/06/28 13:39:08;;;;;;;;;;;25.20;47.00;;;;;;5084355;28;19920;-55
2023/06/28 13:41:33;;;;;;;;;;;25.20;47.10;;;;;;5054385;28;19913;-54
2023/06/28 13:43:59;;;;;;;;;;;25.20;46.70;;;;;;5080680;28;19917;-54
2023/06/28 13:46:24;;;;;;;;;;;25.20;46.70;;;;;;5066735;28;19928;-54
2023/06/28 13:48:49;;;;;;;;;;;25.30;46.70;;;;;;5067649;28;19923;-54
2023/06/28 13:51:15;;;;;;;;;;;25.10;46.50;;;;;;5066265;28;19923;-54
2023/06/28 13:53:40;;;;;;;;;;;25.10;46.50;;;;;;5069342;28;19952;-54
2023/06/28 13:56:06;;;;;;;;;;;25.00;46.60;;;;;;5071736;28;19916;-56
2023/06/28 13:58:33;;;;;;;;;;;25.00;46.60;;;;;;5063830;28;19913;-56
2023/06/28 14:00:59;;;;;;;;;;;25.10;46.60;;;;;;5062474;28;20297;-53
2023/06/28 14:03:25;;;;;;;;;;;25.00;46.80;;;;;;5059829;28;19936;-53
2023/06/28 14:05:51;;;;;;;;;;;25.10;46.60;;;;;;5068484;28;19924;-53
2023/06/28 14:08:16;;;;;;;;;;;25.10;46.80;;;;;;5057764;28;20385;-53
2023/06/28 14:10:42;;;;;;;;;;;25.20;46.70;;;;;;5059226;28;19959;-54